sensor_id;sensor_type;location;lat;lon;timestamp;temperature;humidity
21184;DHT22;18176;49.502;11.754;2023-01-16T00:03:08;0.70;99.90
21184;DHT22;18176;49.502;11.754;2023-01-16T00:07:11;0.70;99.90
21184;DHT22;18176;49.502;11.754;2023-01-16T00:11:11;0.50;99.90
21184;DHT22;18176;49.502;11.754;2023-01-16T00:15:11;0.40;99.90
21184;DHT22;18176;49.502;11.754;2023-01-16T00:19:11;0.40;99.90
21184;DHT22;18176;49.502;11.754;2023-01-16T00:23:14;0.30;99.90
21184;DHT22;18176;49.502;11.754;2023-01-16T00:27:15;0.10;99.90
21184;DHT22;18176;49.502;11.754;2023-01-16T00:31:15;0.00;99.90
21184;DHT22;18176;49.502;11.754;2023-01-16T00:35:16;-0.10;99.90
21184;DHT22;18176;49.502;11.754;2023-01-16T00:39:19;-0.10;99.90
21184;DHT22;18176;49.502;11.754;2023-01-16T00:43:20;-0.10;99.90
21184;DHT22;18176;49.502;11.754;2023-01-16T00:47:20;-0.20;99.90
21184;DHT22;18176;49.502;11.754;2023-01-16T00:51:20;-0.10;99.90
21184;DHT22;18176;49.502;11.754;2023-01-16T00:55:23;-0.10;99.90
21184;DHT22;18176;49.502;11.754;2023-01-16T00:59:23;-0.10;99.90
21184;DHT22;18176;49.502;11.754;2023-01-16T01:03:24;0.00;99.90
21184;DHT22;18176;49.502;11.754;2023-01-16T01:07:24;0.10;99.90
21184;DHT22;18176;49.502;11.754;2023-01-16T01:11:26;0.20;99.90
21184;DHT22;18176;49.502;11.754;2023-01-16T01:15:26;0.40;99.90
21184;DHT22;18176;49.502;11.754;2023-01-16T01:19:27;0.40;99.90
21184;DHT22;18176;49.502;11.754;2023-01-16T01:23:27;0.60;99.90
21184;DHT22;18176;49.502;11.754;2023-01-16T01:27:29;0.70;99.90
21184;DHT22;18176;49.502;11.754;2023-01-16T01:31:30;0.70;99.90
21184;DHT22;18176;49.502;11.754;2023-01-16T01:35:30;0.70;99.90
21184;DHT22;18176;49.502;11.754;2023-01-16T01:39:30;0.60;99.90
21184;DHT22;18176;49.502;11.754;2023-01-16T01:43:45;0.50;99.90
21184;DHT22;18176;49.502;11.754;2023-01-16T01:47:51;0.40;99.90
21184;DHT22;18176;49.502;11.754;2023-01-16T01:51:59;0.30;99.90
21184;DHT22;18176;49.502;11.754;2023-01-16T01:56:07;0.20;99.90
21184;DHT22;18176;49.502;11.754;2023-01-16T02:00:18;0.20;99.90
21184;DHT22;18176;49.502;11.754;2023-01-16T02:04:24;0.10;99.90
21184;DHT22;18176;49.502;11.754;2023-01-16T02:08:31;0.00;99.90
21184;DHT22;18176;49.502;11.754;2023-01-16T02:12:33;-0.20;99.90
21184;DHT22;18176;49.502;11.754;2023-01-16T02:16:38;-0.30;99.90
21184;DHT22;18176;49.502;11.754;2023-01-16T02:20:57;-0.40;99.90
21184;DHT22;18176;49.502;11.754;2023-01-16T02:25:45;-0.50;99.90
21184;DHT22;18176;49.502;11.754;2023-01-16T02:30:17;-0.40;99.90
21184;DHT22;18176;49.502;11.754;2023-01-16T02:34:41;-0.20;99.90
21184;DHT22;18176;49.502;11.754;2023-01-16T02:39:05;-0.20;99.90
21184;DHT22;18176;49.502;11.754;2023-01-16T02:43:20;-0.10;99.90
21184;DHT22;18176;49.502;11.754;2023-01-16T02:47:31;-0.10;99.90
21184;DHT22;18176;49.502;11.754;2023-01-16T02:51:45;-0.20;99.90
21184;DHT22;18176;49.502;11.754;2023-01-16T02:55:54;-0.30;99.90
21184;DHT22;18176;49.502;11.754;2023-01-16T03:00:00;-0.20;99.90
21184;DHT22;18176;49.502;11.754;2023-01-16T03:08:42;0.00;99.90
21184;DHT22;18176;49.502;11.754;2023-01-16T03:12:59;0.00;99.90
21184;DHT22;18176;49.502;11.754;2023-01-16T03:17:26;-0.10;99.90
21184;DHT22;18176;49.502;11.754;2023-01-16T03:21:43;-0.10;99.90
21184;DHT22;18176;49.502;11.754;2023-01-16T03:25:59;-0.10;99.90
21184;DHT22;18176;49.502;11.754;2023-01-16T03:30:07;-0.20;99.90
21184;DHT22;18176;49.502;11.754;2023-01-16T03:34:15;-0.30;99.90
21184;DHT22;18176;49.502;11.754;2023-01-16T03:38:21;-0.30;99.90
21184;DHT22;18176;49.502;11.754;2023-01-16T03:42:30;-0.10;99.90
21184;DHT22;18176;49.502;11.754;2023-01-16T03:46:39;0.00;99.90
21184;DHT22;18176;49.502;11.754;2023-01-16T03:50:49;0.10;99.90
21184;DHT22;18176;49.502;11.754;2023-01-16T03:54:57;0.10;99.90
21184;DHT22;18176;49.502;11.754;2023-01-16T03:59:07;0.10;99.90
21184;DHT22;18176;49.502;11.754;2023-01-16T04:03:10;0.00;99.90
21184;DHT22;18176;49.502;11.754;2023-01-16T04:07:20;0.10;99.90
21184;DHT22;18176;49.502;11.754;2023-01-16T04:11:27;0.20;99.90
21184;DHT22;18176;49.502;11.754;2023-01-16T04:15:31;0.40;99.90
21184;DHT22;18176;49.502;11.754;2023-01-16T04:19:34;0.50;99.90
21184;DHT22;18176;49.502;11.754;2023-01-16T04:23:35;0.50;99.90
21184;DHT22;18176;49.502;11.754;2023-01-16T04:27:36;0.50;99.90
21184;DHT22;18176;49.502;11.754;2023-01-16T04:31:38;0.40;99.90
21184;DHT22;18176;49.502;11.754;2023-01-16T04:35:38;0.40;99.90
21184;DHT22;18176;49.502;11.754;2023-01-16T04:39:38;0.40;99.90
21184;DHT22;18176;49.502;11.754;2023-01-16T04:43:39;0.40;99.90
21184;DHT22;18176;49.502;11.754;2023-01-16T04:47:45;0.50;99.90
21184;DHT22;18176;49.502;11.754;2023-01-16T04:51:46;0.60;99.90
21184;DHT22;18176;49.502;11.754;2023-01-16T04:55:46;0.40;99.90
21184;DHT22;18176;49.502;11.754;2023-01-16T04:59:46;0.30;99.90
21184;DHT22;18176;49.502;11.754;2023-01-16T05:03:49;0.20;99.90
21184;DHT22;18176;49.502;11.754;2023-01-16T05:07:50;0.10;99.90
21184;DHT22;18176;49.502;11.754;2023-01-16T05:12:03;0.10;99.90
21184;DHT22;18176;49.502;11.754;2023-01-16T05:16:04;0.10;99.90
21184;DHT22;18176;49.502;11.754;2023-01-16T05:20:09;0.10;99.90
21184;DHT22;18176;49.502;11.754;2023-01-16T05:24:10;0.20;99.90
21184;DHT22;18176;49.502;11.754;2023-01-16T05:28:10;0.30;99.90
21184;DHT22;18176;49.502;11.754;2023-01-16T05:32:10;0.30;99.90
21184;DHT22;18176;49.502;11.754;2023-01-16T05:36:13;0.20;99.90
21184;DHT22;18176;49.502;11.754;2023-01-16T05:40:13;0.10;99.90
21184;DHT22;18176;49.502;11.754;2023-01-16T05:44:14;0.00;99.90
21184;DHT22;18176;49.502;11.754;2023-01-16T05:48:16;-0.10;99.90
21184;DHT22;18176;49.502;11.754;2023-01-16T05:52:19;-0.20;99.90
21184;DHT22;18176;49.502;11.754;2023-01-16T05:56:20;-0.30;99.90
21184;DHT22;18176;49.502;11.754;2023-01-16T06:00:22;-0.40;99.90
21184;DHT22;18176;49.502;11.754;2023-01-16T06:04:23;-0.50;99.90
21184;DHT22;18176;49.502;11.754;2023-01-16T06:08:26;-0.60;99.90
21184;DHT22;18176;49.502;11.754;2023-01-16T06:12:29;-0.60;99.90
21184;DHT22;18176;49.502;11.754;2023-01-16T06:16:29;-0.60;99.90
21184;DHT22;18176;49.502;11.754;2023-01-16T06:20:29;-0.70;99.90
21184;DHT22;18176;49.502;11.754;2023-01-16T06:24:32;-0.70;99.90
21184;DHT22;18176;49.502;11.754;2023-01-16T06:28:32;-0.80;99.90
21184;DHT22;18176;49.502;11.754;2023-01-16T06:32:32;-0.80;99.90
21184;DHT22;18176;49.502;11.754;2023-01-16T06:36:32;-0.90;99.90
21184;DHT22;18176;49.502;11.754;2023-01-16T06:40:35;-0.90;99.90
21184;DHT22;18176;49.502;11.754;2023-01-16T06:44:35;-0.80;99.90
21184;DHT22;18176;49.502;11.754;2023-01-16T06:48:35;-0.90;99.90
21184;DHT22;18176;49.502;11.754;2023-01-16T06:52:35;-0.90;99.90
21184;DHT22;18176;49.502;11.754;2023-01-16T06:56:39;-0.80;99.90
21184;DHT22;18176;49.502;11.754;2023-01-16T07:00:39;-0.90;99.90
21184;DHT22;18176;49.502;11.754;2023-01-16T07:04:39;-0.80;99.90
21184;DHT22;18176;49.502;11.754;2023-01-16T07:08:41;-0.80;99.90
21184;DHT22;18176;49.502;11.754;2023-01-16T07:12:45;-0.80;99.90
21184;DHT22;18176;49.502;11.754;2023-01-16T07:16:45;-0.80;99.90
21184;DHT22;18176;49.502;11.754;2023-01-16T07:21:11;-0.80;99.90
21184;DHT22;18176;49.502;11.754;2023-01-16T07:25:29;-0.80;99.90
21184;DHT22;18176;49.502;11.754;2023-01-16T07:29:36;-0.70;99.90
21184;DHT22;18176;49.502;11.754;2023-01-16T07:33:38;-0.80;99.90
21184;DHT22;18176;49.502;11.754;2023-01-16T07:37:38;-0.80;99.90
21184;DHT22;18176;49.502;11.754;2023-01-16T07:41:39;-0.80;99.90
21184;DHT22;18176;49.502;11.754;2023-01-16T07:45:56;-0.80;99.90
21184;DHT22;18176;49.502;11.754;2023-01-16T07:50:00;-0.70;99.90
21184;DHT22;18176;49.502;11.754;2023-01-16T07:54:08;-0.60;99.90
21184;DHT22;18176;49.502;11.754;2023-01-16T07:58:09;-0.30;99.90
21184;DHT22;18176;49.502;11.754;2023-01-16T08:02:25;-0.10;99.90
21184;DHT22;18176;49.502;11.754;2023-01-16T08:06:34;0.10;99.90
21184;DHT22;18176;49.502;11.754;2023-01-16T08:10:34;0.20;99.90
21184;DHT22;18176;49.502;11.754;2023-01-16T08:14:37;0.40;99.90
21184;DHT22;18176;49.502;11.754;2023-01-16T08:18:42;0.60;99.90
21184;DHT22;18176;49.502;11.754;2023-01-16T08:23:25;0.80;99.90
21184;DHT22;18176;49.502;11.754;2023-01-16T08:27:40;1.00;99.90
21184;DHT22;18176;49.502;11.754;2023-01-16T08:31:41;1.30;99.90
21184;DHT22;18176;49.502;11.754;2023-01-16T08:35:45;1.50;99.90
21184;DHT22;18176;49.502;11.754;2023-01-16T08:39:46;1.60;99.90
21184;DHT22;18176;49.502;11.754;2023-01-16T08:43:46;1.70;99.90
21184;DHT22;18176;49.502;11.754;2023-01-16T08:48:00;1.80;99.90
21184;DHT22;18176;49.502;11.754;2023-01-16T08:53:07;1.80;99.90
21184;DHT22;18176;49.502;11.754;2023-01-16T08:59:19;2.00;99.90
21184;DHT22;18176;49.502;11.754;2023-01-16T09:03:22;2.00;99.90
21184;DHT22;18176;49.502;11.754;2023-01-16T09:13:23;2.40;99.90
21184;DHT22;18176;49.502;11.754;2023-01-16T09:18:17;2.60;99.90
21184;DHT22;18176;49.502;11.754;2023-01-16T09:24:36;2.80;99.90
21184;DHT22;18176;49.502;11.754;2023-01-16T09:28:13;3.00;99.90
21184;DHT22;18176;49.502;11.754;2023-01-16T09:32:32;3.40;99.90
21184;DHT22;18176;49.502;11.754;2023-01-16T09:36:33;3.70;99.90
21184;DHT22;18176;49.502;11.754;2023-01-16T09:40:36;3.70;99.90
21184;DHT22;18176;49.502;11.754;2023-01-16T09:44:42;3.70;99.90
21184;DHT22;18176;49.502;11.754;2023-01-16T09:48:49;3.80;99.90
21184;DHT22;18176;49.502;11.754;2023-01-16T09:52:56;4.00;99.90
21184;DHT22;18176;49.502;11.754;2023-01-16T09:57:14;4.20;99.90
21184;DHT22;18176;49.502;11.754;2023-01-16T10:01:32;4.30;99.90
21184;DHT22;18176;49.502;11.754;2023-01-16T10:05:41;4.60;99.90
21184;DHT22;18176;49.502;11.754;2023-01-16T10:09:54;5.10;99.90
21184;DHT22;18176;49.502;11.754;2023-01-16T10:14:26;5.40;99.90
21184;DHT22;18176;49.502;11.754;2023-01-16T10:18:55;5.80;99.90
21184;DHT22;18176;49.502;11.754;2023-01-16T10:23:12;6.10;99.90
21184;DHT22;18176;49.502;11.754;2023-01-16T10:27:35;6.50;99.90
21184;DHT22;18176;49.502;11.754;2023-01-16T10:31:56;6.70;99.90
21184;DHT22;18176;49.502;11.754;2023-01-16T10:36:03;6.80;99.90
21184;DHT22;18176;49.502;11.754;2023-01-16T10:40:12;6.40;99.90
21184;DHT22;18176;49.502;11.754;2023-01-16T10:44:28;6.10;99.90
21184;DHT22;18176;49.502;11.754;2023-01-16T10:48:45;6.30;99.90
21184;DHT22;18176;49.502;11.754;2023-01-16T10:52:58;6.10;99.90
21184;DHT22;18176;49.502;11.754;2023-01-16T10:56:58;6.20;99.90
21184;DHT22;18176;49.502;11.754;2023-01-16T11:01:02;6.50;99.90
21184;DHT22;18176;49.502;11.754;2023-01-16T11:05:26;6.90;99.90
21184;DHT22;18176;49.502;11.754;2023-01-16T11:09:28;7.30;99.90
21184;DHT22;18176;49.502;11.754;2023-01-16T11:13:30;7.40;99.90
21184;DHT22;18176;49.502;11.754;2023-01-16T11:17:53;7.40;99.90
21184;DHT22;18176;49.502;11.754;2023-01-16T11:22:22;7.60;99.90
21184;DHT22;18176;49.502;11.754;2023-01-16T11:26:25;7.10;99.90
21184;DHT22;18176;49.502;11.754;2023-01-16T11:30:29;7.30;99.90
21184;DHT22;18176;49.502;11.754;2023-01-16T11:34:32;7.10;99.90
21184;DHT22;18176;49.502;11.754;2023-01-16T11:38:38;7.20;99.90
21184;DHT22;18176;49.502;11.754;2023-01-16T11:42:51;6.50;99.90
21184;DHT22;18176;49.502;11.754;2023-01-16T11:47:05;5.90;99.90
21184;DHT22;18176;49.502;11.754;2023-01-16T11:51:13;5.60;99.90
21184;DHT22;18176;49.502;11.754;2023-01-16T11:55:18;5.70;99.90
21184;DHT22;18176;49.502;11.754;2023-01-16T11:59:32;6.70;99.90
21184;DHT22;18176;49.502;11.754;2023-01-16T12:04:03;7.30;99.90
21184;DHT22;18176;49.502;11.754;2023-01-16T12:08:26;8.20;99.90
21184;DHT22;18176;49.502;11.754;2023-01-16T12:12:48;8.60;99.90
21184;DHT22;18176;49.502;11.754;2023-01-16T12:17:13;8.20;99.90
21184;DHT22;18176;49.502;11.754;2023-01-16T12:21:29;7.00;99.90
21184;DHT22;18176;49.502;11.754;2023-01-16T12:25:39;6.60;99.90
21184;DHT22;18176;49.502;11.754;2023-01-16T12:29:58;6.30;99.90
21184;DHT22;18176;49.502;11.754;2023-01-16T12:34:18;7.00;99.90
21184;DHT22;18176;49.502;11.754;2023-01-16T12:38:52;7.60;99.90
21184;DHT22;18176;49.502;11.754;2023-01-16T12:43:13;7.50;99.90
21184;DHT22;18176;49.502;11.754;2023-01-16T12:47:45;7.00;99.90
21184;DHT22;18176;49.502;11.754;2023-01-16T12:52:09;6.80;99.90
21184;DHT22;18176;49.502;11.754;2023-01-16T12:56:35;6.50;99.90
21184;DHT22;18176;49.502;11.754;2023-01-16T13:00:48;6.40;99.90
21184;DHT22;18176;49.502;11.754;2023-01-16T13:05:01;6.40;99.90
21184;DHT22;18176;49.502;11.754;2023-01-16T13:09:41;6.50;99.90
21184;DHT22;18176;49.502;11.754;2023-01-16T13:19:58;6.50;99.90
21184;DHT22;18176;49.502;11.754;2023-01-16T13:24:59;6.60;99.90
21184;DHT22;18176;49.502;11.754;2023-01-16T13:29:20;6.60;99.90
21184;DHT22;18176;49.502;11.754;2023-01-16T13:33:30;6.50;99.90
21184;DHT22;18176;49.502;11.754;2023-01-16T13:37:52;6.40;99.90
21184;DHT22;18176;49.502;11.754;2023-01-16T13:42:04;6.20;99.90
21184;DHT22;18176;49.502;11.754;2023-01-16T13:46:09;6.00;99.90
21184;DHT22;18176;49.502;11.754;2023-01-16T13:50:18;5.90;99.90
21184;DHT22;18176;49.502;11.754;2023-01-16T13:54:35;5.80;99.90
21184;DHT22;18176;49.502;11.754;2023-01-16T13:58:46;5.60;99.90
21184;DHT22;18176;49.502;11.754;2023-01-16T14:03:55;5.50;99.90
21184;DHT22;18176;49.502;11.754;2023-01-16T14:08:48;5.40;99.90
21184;DHT22;18176;49.502;11.754;2023-01-16T14:13:13;5.40;99.90
21184;DHT22;18176;49.502;11.754;2023-01-16T14:17:21;5.30;99.90
21184;DHT22;18176;49.502;11.754;2023-01-16T14:21:28;5.20;99.90
21184;DHT22;18176;49.502;11.754;2023-01-16T14:25:42;5.30;99.90
21184;DHT22;18176;49.502;11.754;2023-01-16T14:29:49;5.10;99.90
21184;DHT22;18176;49.502;11.754;2023-01-16T14:33:54;5.00;99.90
21184;DHT22;18176;49.502;11.754;2023-01-16T14:37:59;5.00;99.90
21184;DHT22;18176;49.502;11.754;2023-01-16T14:42:06;5.00;99.90
21184;DHT22;18176;49.502;11.754;2023-01-16T14:46:33;5.00;99.90
21184;DHT22;18176;49.502;11.754;2023-01-16T14:51:15;5.00;99.90
21184;DHT22;18176;49.502;11.754;2023-01-16T14:55:37;4.90;99.90
21184;DHT22;18176;49.502;11.754;2023-01-16T14:59:58;4.70;99.90
21184;DHT22;18176;49.502;11.754;2023-01-16T15:04:05;4.70;99.90
21184;DHT22;18176;49.502;11.754;2023-01-16T15:08:11;4.70;99.90
21184;DHT22;18176;49.502;11.754;2023-01-16T15:12:17;4.60;99.90
21184;DHT22;18176;49.502;11.754;2023-01-16T15:16:21;4.50;99.90
21184;DHT22;18176;49.502;11.754;2023-01-16T15:20:46;4.40;99.90
21184;DHT22;18176;49.502;11.754;2023-01-16T15:25:03;4.40;99.90
21184;DHT22;18176;49.502;11.754;2023-01-16T15:29:23;4.30;99.90
21184;DHT22;18176;49.502;11.754;2023-01-16T15:33:42;4.30;99.90
21184;DHT22;18176;49.502;11.754;2023-01-16T15:37:51;4.20;99.90
21184;DHT22;18176;49.502;11.754;2023-01-16T15:41:54;4.20;99.90
21184;DHT22;18176;49.502;11.754;2023-01-16T15:46:15;4.30;99.90
21184;DHT22;18176;49.502;11.754;2023-01-16T15:50:40;4.30;99.90
21184;DHT22;18176;49.502;11.754;2023-01-16T15:54:51;4.30;99.90
21184;DHT22;18176;49.502;11.754;2023-01-16T15:58:53;4.20;99.90
21184;DHT22;18176;49.502;11.754;2023-01-16T16:02:56;4.10;99.90
21184;DHT22;18176;49.502;11.754;2023-01-16T16:06:58;4.10;99.90
21184;DHT22;18176;49.502;11.754;2023-01-16T16:11:03;4.00;99.90
21184;DHT22;18176;49.502;11.754;2023-01-16T16:15:21;3.90;99.90
21184;DHT22;18176;49.502;11.754;2023-01-16T16:19:35;3.80;99.90
21184;DHT22;18176;49.502;11.754;2023-01-16T16:23:35;3.80;99.90
21184;DHT22;18176;49.502;11.754;2023-01-16T16:27:41;3.80;99.90
21184;DHT22;18176;49.502;11.754;2023-01-16T16:31:41;3.80;99.90
21184;DHT22;18176;49.502;11.754;2023-01-16T16:35:47;3.80;99.90
21184;DHT22;18176;49.502;11.754;2023-01-16T16:39:54;3.80;99.90
21184;DHT22;18176;49.502;11.754;2023-01-16T16:44:07;3.80;99.90
21184;DHT22;18176;49.502;11.754;2023-01-16T16:48:28;3.70;99.90
21184;DHT22;18176;49.502;11.754;2023-01-16T16:52:33;3.60;99.90
21184;DHT22;18176;49.502;11.754;2023-01-16T16:56:44;3.60;99.90
21184;DHT22;18176;49.502;11.754;2023-01-16T17:00:51;3.60;99.90
21184;DHT22;18176;49.502;11.754;2023-01-16T17:04:52;3.70;99.90
21184;DHT22;18176;49.502;11.754;2023-01-16T17:08:52;3.70;99.90
21184;DHT22;18176;49.502;11.754;2023-01-16T17:12:52;3.70;99.90
21184;DHT22;18176;49.502;11.754;2023-01-16T17:16:56;3.60;99.90
21184;DHT22;18176;49.502;11.754;2023-01-16T17:20:57;3.50;99.90
21184;DHT22;18176;49.502;11.754;2023-01-16T17:24:57;3.50;99.90
21184;DHT22;18176;49.502;11.754;2023-01-16T17:28:58;3.40;99.90
21184;DHT22;18176;49.502;11.754;2023-01-16T17:33:04;3.40;99.90
21184;DHT22;18176;49.502;11.754;2023-01-16T17:37:12;3.30;99.90
21184;DHT22;18176;49.502;11.754;2023-01-16T17:41:15;3.30;99.90
21184;DHT22;18176;49.502;11.754;2023-01-16T17:45:26;3.20;99.90
21184;DHT22;18176;49.502;11.754;2023-01-16T17:49:45;3.10;99.90
21184;DHT22;18176;49.502;11.754;2023-01-16T17:54:00;3.00;99.90
21184;DHT22;18176;49.502;11.754;2023-01-16T17:58:00;2.90;99.90
21184;DHT22;18176;49.502;11.754;2023-01-16T18:02:00;2.80;99.90
21184;DHT22;18176;49.502;11.754;2023-01-16T18:06:05;2.70;99.90
21184;DHT22;18176;49.502;11.754;2023-01-16T18:10:08;2.70;99.90
21184;DHT22;18176;49.502;11.754;2023-01-16T18:14:10;2.70;99.90
21184;DHT22;18176;49.502;11.754;2023-01-16T18:18:23;2.60;99.90
21184;DHT22;18176;49.502;11.754;2023-01-16T18:22:28;2.50;99.90
21184;DHT22;18176;49.502;11.754;2023-01-16T18:26:31;2.60;99.90
21184;DHT22;18176;49.502;11.754;2023-01-16T18:30:31;2.70;99.90
21184;DHT22;18176;49.502;11.754;2023-01-16T18:34:32;2.80;99.90
21184;DHT22;18176;49.502;11.754;2023-01-16T18:38:52;2.90;99.90
21184;DHT22;18176;49.502;11.754;2023-01-16T18:43:09;2.90;99.90
21184;DHT22;18176;49.502;11.754;2023-01-16T18:47:23;2.90;99.90
21184;DHT22;18176;49.502;11.754;2023-01-16T18:51:35;2.90;99.90
21184;DHT22;18176;49.502;11.754;2023-01-16T18:55:50;3.00;99.90
21184;DHT22;18176;49.502;11.754;2023-01-16T19:00:12;3.20;99.90
21184;DHT22;18176;49.502;11.754;2023-01-16T19:04:26;3.30;99.90
21184;DHT22;18176;49.502;11.754;2023-01-16T19:08:27;3.50;99.90
21184;DHT22;18176;49.502;11.754;2023-01-16T19:12:32;3.70;99.90
21184;DHT22;18176;49.502;11.754;2023-01-16T19:16:33;3.70;99.90
21184;DHT22;18176;49.502;11.754;2023-01-16T19:20:44;3.70;99.90
21184;DHT22;18176;49.502;11.754;2023-01-16T19:24:44;3.80;99.90
21184;DHT22;18176;49.502;11.754;2023-01-16T19:28:47;3.90;99.90
21184;DHT22;18176;49.502;11.754;2023-01-16T19:32:47;4.00;99.90
21184;DHT22;18176;49.502;11.754;2023-01-16T19:36:47;4.20;99.90
21184;DHT22;18176;49.502;11.754;2023-01-16T19:40:47;4.20;99.90
21184;DHT22;18176;49.502;11.754;2023-01-16T19:44:53;4.30;99.90
21184;DHT22;18176;49.502;11.754;2023-01-16T19:49:05;4.40;99.90
21184;DHT22;18176;49.502;11.754;2023-01-16T19:53:05;4.40;99.90
21184;DHT22;18176;49.502;11.754;2023-01-16T19:57:05;4.40;99.90
21184;DHT22;18176;49.502;11.754;2023-01-16T20:01:12;4.40;99.90
21184;DHT22;18176;49.502;11.754;2023-01-16T20:05:13;4.40;99.90
21184;DHT22;18176;49.502;11.754;2023-01-16T20:09:13;4.40;99.90
21184;DHT22;18176;49.502;11.754;2023-01-16T20:13:13;4.40;99.90
21184;DHT22;18176;49.502;11.754;2023-01-16T20:17:17;4.50;99.90
21184;DHT22;18176;49.502;11.754;2023-01-16T20:21:19;4.50;99.90
21184;DHT22;18176;49.502;11.754;2023-01-16T20:25:19;4.60;99.90
21184;DHT22;18176;49.502;11.754;2023-01-16T20:29:22;4.60;99.90
21184;DHT22;18176;49.502;11.754;2023-01-16T20:33:25;4.60;99.90
21184;DHT22;18176;49.502;11.754;2023-01-16T20:37:26;4.60;99.90
21184;DHT22;18176;49.502;11.754;2023-01-16T20:41:27;4.70;99.90
21184;DHT22;18176;49.502;11.754;2023-01-16T20:45:40;4.60;99.90
21184;DHT22;18176;49.502;11.754;2023-01-16T20:49:58;4.60;99.90
21184;DHT22;18176;49.502;11.754;2023-01-16T20:54:02;4.60;99.90
21184;DHT22;18176;49.502;11.754;2023-01-16T20:58:04;4.50;99.90
21184;DHT22;18176;49.502;11.754;2023-01-16T21:02:06;4.40;99.90
21184;DHT22;18176;49.502;11.754;2023-01-16T21:06:11;4.40;99.90
21184;DHT22;18176;49.502;11.754;2023-01-16T21:10:11;4.40;99.90
21184;DHT22;18176;49.502;11.754;2023-01-16T21:14:11;4.40;99.90
21184;DHT22;18176;49.502;11.754;2023-01-16T21:18:14;4.40;99.90
21184;DHT22;18176;49.502;11.754;2023-01-16T21:22:36;4.40;99.90
21184;DHT22;18176;49.502;11.754;2023-01-16T21:26:38;4.30;99.90
21184;DHT22;18176;49.502;11.754;2023-01-16T21:30:39;4.30;99.90
21184;DHT22;18176;49.502;11.754;2023-01-16T21:34:40;4.30;99.90
21184;DHT22;18176;49.502;11.754;2023-01-16T21:38:43;4.20;99.90
21184;DHT22;18176;49.502;11.754;2023-01-16T21:42:43;4.00;99.90
21184;DHT22;18176;49.502;11.754;2023-01-16T21:46:56;3.90;99.90
21184;DHT22;18176;49.502;11.754;2023-01-16T21:50:56;3.80;99.90
21184;DHT22;18176;49.502;11.754;2023-01-16T21:55:01;3.80;99.90
21184;DHT22;18176;49.502;11.754;2023-01-16T21:59:03;3.80;99.90
21184;DHT22;18176;49.502;11.754;2023-01-16T22:03:03;3.80;99.90
21184;DHT22;18176;49.502;11.754;2023-01-16T22:07:04;3.90;99.90
21184;DHT22;18176;49.502;11.754;2023-01-16T22:11:12;3.90;99.90
21184;DHT22;18176;49.502;11.754;2023-01-16T22:15:26;3.90;99.90
21184;DHT22;18176;49.502;11.754;2023-01-16T22:19:38;3.80;99.90
21184;DHT22;18176;49.502;11.754;2023-01-16T22:23:50;3.80;99.90
21184;DHT22;18176;49.502;11.754;2023-01-16T22:27:57;3.80;99.90
21184;DHT22;18176;49.502;11.754;2023-01-16T22:32:12;3.80;99.90
21184;DHT22;18176;49.502;11.754;2023-01-16T22:36:12;3.80;99.90
21184;DHT22;18176;49.502;11.754;2023-01-16T22:40:12;3.80;99.90
21184;DHT22;18176;49.502;11.754;2023-01-16T22:44:15;3.90;99.90
21184;DHT22;18176;49.502;11.754;2023-01-16T22:48:28;3.90;99.90
21184;DHT22;18176;49.502;11.754;2023-01-16T22:52:28;4.00;99.90
21184;DHT22;18176;49.502;11.754;2023-01-16T22:56:29;4.00;99.90
21184;DHT22;18176;49.502;11.754;2023-01-16T23:00:31;4.00;99.90
21184;DHT22;18176;49.502;11.754;2023-01-16T23:04:32;4.10;99.90
21184;DHT22;18176;49.502;11.754;2023-01-16T23:08:32;4.00;99.90
21184;DHT22;18176;49.502;11.754;2023-01-16T23:12:32;4.00;99.90
21184;DHT22;18176;49.502;11.754;2023-01-16T23:16:37;4.00;99.90
21184;DHT22;18176;49.502;11.754;2023-01-16T23:20:39;4.10;99.90
21184;DHT22;18176;49.502;11.754;2023-01-16T23:24:39;4.10;99.90
21184;DHT22;18176;49.502;11.754;2023-01-16T23:28:40;4.20;99.90
21184;DHT22;18176;49.502;11.754;2023-01-16T23:32:44;4.20;99.90
21184;DHT22;18176;49.502;11.754;2023-01-16T23:36:44;4.30;99.90
21184;DHT22;18176;49.502;11.754;2023-01-16T23:40:45;4.20;99.90
21184;DHT22;18176;49.502;11.754;2023-01-16T23:44:46;4.30;99.90
21184;DHT22;18176;49.502;11.754;2023-01-16T23:48:52;4.20;99.90
21184;DHT22;18176;49.502;11.754;2023-01-16T23:52:52;4.20;99.90
21184;DHT22;18176;49.502;11.754;2023-01-16T23:56:52;4.20;99.90
